Terminal Aerodrome Forecast
Issued by NWS

Home | Current Version | Previous Version | Text Only | Print | Product List | Glossary On
Versions: 1 2 3 4 5 6 7 8 9 10 11 12 13 14 15
000
FTUS45 KFGZ 301736
TAFGCN
TAF
KGCN 301736Z 3018/3118 20010G17KT P6SM SCT090 SCT250
      TEMPO 3018/3021 VRB05KT
     FM310300 VRB03KT P6SM FEW100 SCT250=

USA.gov is the U.S. government's official web portal to all federal, state and local government web resources and services.